sensor_id;sensor_type;location;lat;lon;timestamp;temperature;humidity
23495;DHT22;26107;50.832;2.950;2022-12-20T00:01:43;10.10;99.90
23495;DHT22;26107;50.832;2.950;2022-12-20T00:16:44;10.10;99.90
23495;DHT22;26107;50.832;2.950;2022-12-20T00:31:44;9.90;99.90
23495;DHT22;26107;50.832;2.950;2022-12-20T00:46:45;9.90;99.90
23495;DHT22;26107;50.832;2.950;2022-12-20T01:01:46;10.00;99.90
23495;DHT22;26107;50.832;2.950;2022-12-20T01:16:47;10.20;99.90
23495;DHT22;26107;50.832;2.950;2022-12-20T01:31:48;10.20;99.90
23495;DHT22;26107;50.832;2.950;2022-12-20T01:46:49;10.40;99.90
23495;DHT22;26107;50.832;2.950;2022-12-20T02:01:50;10.30;99.90
23495;DHT22;26107;50.832;2.950;2022-12-20T02:17:07;10.30;99.90
23495;DHT22;26107;50.832;2.950;2022-12-20T02:32:21;10.10;99.90
23495;DHT22;26107;50.832;2.950;2022-12-20T02:47:29;10.20;99.90
23495;DHT22;26107;50.832;2.950;2022-12-20T03:02:30;10.30;99.90
23495;DHT22;26107;50.832;2.950;2022-12-20T03:17:51;10.40;99.90
23495;DHT22;26107;50.832;2.950;2022-12-20T03:32:52;10.50;99.90
23495;DHT22;26107;50.832;2.950;2022-12-20T03:47:52;10.70;99.90
23495;DHT22;26107;50.832;2.950;2022-12-20T04:02:53;10.60;99.90
23495;DHT22;26107;50.832;2.950;2022-12-20T04:17:53;10.50;99.90
23495;DHT22;26107;50.832;2.950;2022-12-20T04:32:54;10.50;99.90
23495;DHT22;26107;50.832;2.950;2022-12-20T04:47:54;10.60;99.90
23495;DHT22;26107;50.832;2.950;2022-12-20T05:02:55;10.50;99.90
23495;DHT22;26107;50.832;2.950;2022-12-20T05:17:56;10.60;99.90
23495;DHT22;26107;50.832;2.950;2022-12-20T05:32:58;10.80;99.90
23495;DHT22;26107;50.832;2.950;2022-12-20T05:47:59;10.80;99.90
23495;DHT22;26107;50.832;2.950;2022-12-20T06:03:00;10.80;99.90
23495;DHT22;26107;50.832;2.950;2022-12-20T06:18:00;10.80;99.90
23495;DHT22;26107;50.832;2.950;2022-12-20T06:33:01;10.60;99.90
23495;DHT22;26107;50.832;2.950;2022-12-20T06:48:02;10.30;99.90
23495;DHT22;26107;50.832;2.950;2022-12-20T07:03:03;10.40;99.90
23495;DHT22;26107;50.832;2.950;2022-12-20T07:18:03;10.40;99.90
23495;DHT22;26107;50.832;2.950;2022-12-20T07:33:04;10.20;99.90
23495;DHT22;26107;50.832;2.950;2022-12-20T07:48:05;10.20;99.90
23495;DHT22;26107;50.832;2.950;2022-12-20T08:03:12;10.60;99.90
23495;DHT22;26107;50.832;2.950;2022-12-20T08:18:14;10.50;99.90
23495;DHT22;26107;50.832;2.950;2022-12-20T08:33:15;10.50;99.90
23495;DHT22;26107;50.832;2.950;2022-12-20T08:48:16;10.30;99.90
23495;DHT22;26107;50.832;2.950;2022-12-20T09:03:16;10.40;99.90
23495;DHT22;26107;50.832;2.950;2022-12-20T09:18:17;10.50;99.90
23495;DHT22;26107;50.832;2.950;2022-12-20T09:33:18;10.50;99.90
23495;DHT22;26107;50.832;2.950;2022-12-20T09:48:21;10.60;99.90
23495;DHT22;26107;50.832;2.950;2022-12-20T10:03:34;10.50;99.90
23495;DHT22;26107;50.832;2.950;2022-12-20T10:33:45;10.60;99.90
23495;DHT22;26107;50.832;2.950;2022-12-20T10:48:47;10.50;99.90
23495;DHT22;26107;50.832;2.950;2022-12-20T11:03:55;10.70;99.90
23495;DHT22;26107;50.832;2.950;2022-12-20T11:49:37;10.80;99.90
23495;DHT22;26107;50.832;2.950;2022-12-20T12:05:26;10.70;99.90
23495;DHT22;26107;50.832;2.950;2022-12-20T12:20:44;10.80;99.90
23495;DHT22;26107;50.832;2.950;2022-12-20T12:36:02;10.80;99.90
23495;DHT22;26107;50.832;2.950;2022-12-20T12:51:07;10.90;99.90
23495;DHT22;26107;50.832;2.950;2022-12-20T13:21:31;10.70;99.90
23495;DHT22;26107;50.832;2.950;2022-12-20T13:36:35;10.70;99.90
23495;DHT22;26107;50.832;2.950;2022-12-20T13:51:37;10.90;99.90
23495;DHT22;26107;50.832;2.950;2022-12-20T14:06:37;10.80;99.90
23495;DHT22;26107;50.832;2.950;2022-12-20T14:21:41;10.80;99.90
23495;DHT22;26107;50.832;2.950;2022-12-20T14:36:45;10.90;99.90
23495;DHT22;26107;50.832;2.950;2022-12-20T14:51:47;10.90;99.90
23495;DHT22;26107;50.832;2.950;2022-12-20T15:06:47;10.90;99.90
23495;DHT22;26107;50.832;2.950;2022-12-20T15:21:48;10.90;99.90
23495;DHT22;26107;50.832;2.950;2022-12-20T15:36:50;10.90;99.90
23495;DHT22;26107;50.832;2.950;2022-12-20T15:51:53;11.00;99.90
23495;DHT22;26107;50.832;2.950;2022-12-20T16:06:54;11.20;99.90
23495;DHT22;26107;50.832;2.950;2022-12-20T16:21:54;11.00;99.90
23495;DHT22;26107;50.832;2.950;2022-12-20T16:36:55;10.80;99.90
23495;DHT22;26107;50.832;2.950;2022-12-20T16:51:56;11.00;99.90
23495;DHT22;26107;50.832;2.950;2022-12-20T17:06:56;11.00;99.90
23495;DHT22;26107;50.832;2.950;2022-12-20T17:21:57;11.10;99.90
23495;DHT22;26107;50.832;2.950;2022-12-20T17:36:58;11.10;99.90
23495;DHT22;26107;50.832;2.950;2022-12-20T17:51:58;11.20;99.90
23495;DHT22;26107;50.832;2.950;2022-12-20T18:06:59;10.70;99.90
23495;DHT22;26107;50.832;2.950;2022-12-20T18:22:01;10.50;99.90
23495;DHT22;26107;50.832;2.950;2022-12-20T18:37:03;10.30;99.90
23495;DHT22;26107;50.832;2.950;2022-12-20T18:52:04;10.30;99.90
23495;DHT22;26107;50.832;2.950;2022-12-20T19:07:05;10.20;99.90
23495;DHT22;26107;50.832;2.950;2022-12-20T19:22:07;10.10;99.90
23495;DHT22;26107;50.832;2.950;2022-12-20T19:37:07;9.70;99.90
23495;DHT22;26107;50.832;2.950;2022-12-20T19:52:08;9.80;99.90
23495;DHT22;26107;50.832;2.950;2022-12-20T20:07:09;10.00;99.90
23495;DHT22;26107;50.832;2.950;2022-12-20T20:22:10;10.00;99.90
23495;DHT22;26107;50.832;2.950;2022-12-20T20:37:11;10.00;99.90
23495;DHT22;26107;50.832;2.950;2022-12-20T20:52:11;10.40;99.90
23495;DHT22;26107;50.832;2.950;2022-12-20T21:07:12;10.50;99.90
23495;DHT22;26107;50.832;2.950;2022-12-20T21:22:13;10.00;99.90
23495;DHT22;26107;50.832;2.950;2022-12-20T21:37:13;10.30;99.90
23495;DHT22;26107;50.832;2.950;2022-12-20T21:52:14;10.30;99.90
23495;DHT22;26107;50.832;2.950;2022-12-20T22:07:15;10.10;99.90
23495;DHT22;26107;50.832;2.950;2022-12-20T22:22:15;10.10;99.90
23495;DHT22;26107;50.832;2.950;2022-12-20T22:37:17;10.40;99.90
23495;DHT22;26107;50.832;2.950;2022-12-20T22:52:18;10.00;99.90
23495;DHT22;26107;50.832;2.950;2022-12-20T23:07:21;10.30;99.90
23495;DHT22;26107;50.832;2.950;2022-12-20T23:22:24;10.00;99.90
23495;DHT22;26107;50.832;2.950;2022-12-20T23:37:37;10.10;99.90
23495;DHT22;26107;50.832;2.950;2022-12-20T23:52:38;9.90;99.90
